0NC3 weather

Washington County Hospital Heliport
Plymouth, North Carolina, United States

Public forecast

Using degrees Fahrenheit for public forecast. Weather courtesy of forecast.io.

METAR (pilot weather report)

Closest report is Northeastern Regional Airport, 11.2 nm (20.7 km) NE. Retrieved 2019/04/21 15:40 UTC (3 minutes ago):

KEDE 211540Z AUTO 00000KT 10SM OVC095 16/09 A3004 RMK AO2 T01620087

TAF (pilot weather forecast)

Closest forecast is Elizabeth City Regional Airport & Coast Guard Air Station, 34.4 nm (63.7 km) NE. Retrieved 2019/04/21 12:24 UTC (3 hours ago):

TAF TAF KECG 211120Z 2112/2212 22004KT P6SM FEW070 FM211900 18006KT P6SM SCT090 FM212100 15005KT P6SM VCSH BKN050 FM220000 VRB04KT P6SM BKN050